Overview Statistics Trail Chart Weather Telemetry Raw packets
 

This is the latest recevied weather packets stored in our database for station/object DL9LA-13. If no packets are shown the sender has not sent any weather packets the latest 10 day(s).

<< 1 2 3 4 >>
Time Temp. Humidity Pressure Rain* Wind** Luminosity Snow
1788563771 23.33° C 60% 971 hPa - - - -
1788549283 26.11° C 47% 970 hPa - - - -
1788548076 26.11° C 46% 969 hPa - - - -
1788546869 26.67° C 45% 969 hPa - - - -
1788546265 27.22° C 44% 969 hPa - - - -
1788537814 31.11° C 34% 969 hPa - - - -
1788535400 31.11° C 33% 969 hPa - - - -
1788461755 23.89° C 52% 976 hPa - - - -
1788426141 24.44° C 45% 977 hPa - - - -
1788414068 18.89° C 81% 977 hPa - - - -
1788413464 18.33° C 81% 977 hPa - - - -
1788412860 18.33° C 81% 977 hPa - - - -
1788410446 17.78° C 86% 977 hPa - - - -
1788404409 18.33° C 80% 977 hPa - - - -
1788401995 18.89° C 81% 977 hPa - - - -
1788401391 18.89° C 81% 977 hPa - - - -
1788399580 18.89° C 82% 977 hPa - - - -
1788398977 18.89° C 83% 977 hPa - - - -
1788398373 19.44° C 83% 977 hPa - - - -
1788397769 19.44° C 82% 976 hPa - - - -
1788397166 19.44° C 81% 976 hPa - - - -
1788396562 19.44° C 79% 976 hPa - - - -
1788395958 20° C 79% 976 hPa - - - -
1788395355 20° C 79% 976 hPa - - - -
1788394751 20° C 79% 976 hPa - - - -

* Rain since midnight (hover to see other rain measurements)
** Current wind speed in m/s (hover to see current wind gust speed)